Time;durP1;ratioP1;P1;durP2;ratioP2;P2;SDS_P1;SDS_P2;PMS_P1;PMS_P2;Temp;Humidity;BMP_temperature;BMP_pressure;BME280_temperature;BME280_humidity;BME280_pressure;Samples;Min_cycle;Max_cycle;Signal;HPM_P1;HPM_P2
2021/12/11 00:00:06;;;;;;;16.25;14.55;;;;;21.00;99268.00;;;;2100332;28;20283;-60
2021/12/11 00:01:10;;;;;;;15.80;13.98;;;;;20.90;99281.00;;;;2090709;28;20212;-60
2021/12/11 00:02:22;;;;;;;15.13;13.52;;;;;20.90;99281.00;;;;2091888;28;20216;-61
2021/12/11 00:03:31;;;;;;;16.52;14.82;;;;;20.90;99282.00;;;;2096472;28;20215;-60
2021/12/11 00:04:34;;;;;;;19.90;14.50;;;;;20.90;99276.00;;;;2099765;28;20273;-60
2021/12/11 00:05:35;;;;;;;16.63;15.02;;;;;20.90;99287.00;;;;2100018;28;20567;-62
2021/12/11 00:06:38;;;;;;;15.68;14.02;;;;;20.90;99288.00;;;;2100348;28;20208;-61
2021/12/11 00:07:38;;;;;;;15.00;13.45;;;;;20.90;99288.00;;;;2091964;28;20691;-60
2021/12/11 00:08:39;;;;;;;15.60;14.10;;;;;20.90;99292.00;;;;2092176;28;20205;-61
2021/12/11 00:09:50;;;;;;;16.13;14.53;;;;;20.90;99296.00;;;;2100877;28;20295;-60
2021/12/11 00:10:54;;;;;;;15.63;13.98;;;;;20.90;99294.00;;;;2100699;28;20216;-60
2021/12/11 00:12:00;;;;;;;15.95;14.35;;;;;20.90;99300.00;;;;2091919;28;20270;-60
2021/12/11 00:13:02;;;;;;;15.35;13.52;;;;;20.90;99298.00;;;;2089128;28;20315;-60
2021/12/11 00:14:04;;;;;;;15.57;13.50;;;;;20.90;99307.00;;;;2100647;28;20206;-60
2021/12/11 00:15:07;;;;;;;14.95;13.45;;;;;20.90;99314.00;;;;2100615;28;20222;-61
2021/12/11 00:16:10;;;;;;;15.98;14.27;;;;;20.90;99312.00;;;;2100404;28;20705;-60
2021/12/11 00:17:11;;;;;;;15.73;13.73;;;;;20.90;99317.00;;;;2090855;28;20248;-61
2021/12/11 00:18:13;;;;;;;14.90;13.43;;;;;20.90;99314.00;;;;2091805;28;20204;-60
2021/12/11 00:19:21;;;;;;;14.05;12.65;;;;;20.90;99310.00;;;;2096830;28;20695;-60
2021/12/11 00:20:24;;;;;;;16.05;14.45;;;;;20.90;99319.00;;;;2100345;28;20221;-60
2021/12/11 00:21:25;;;;;;;16.00;14.40;;;;;20.90;99320.00;;;;2100511;28;20203;-60
2021/12/11 00:22:28;;;;;;;14.57;13.07;;;;;20.90;99320.00;;;;2100487;28;20560;-60
2021/12/11 00:23:43;;;;;;;15.68;14.15;;;;;20.90;99337.00;;;;2100529;28;20554;-60
2021/12/11 00:24:44;;;;;;;14.98;13.43;;;;;20.80;99326.00;;;;2089414;28;20333;-60
2021/12/11 00:25:44;;;;;;;14.80;13.30;;;;;20.90;99337.00;;;;2092988;28;20321;-60
2021/12/11 00:26:53;;;;;;;14.47;12.83;;;;;20.80;99335.00;;;;2099037;28;20692;-60
2021/12/11 00:28:00;;;;;;;14.55;13.07;;;;;20.90;99335.00;;;;2094201;28;20211;-61
2021/12/11 00:29:01;;;;;;;14.07;12.63;;;;;20.80;99341.00;;;;2100518;28;20844;-60
2021/12/11 00:30:03;;;;;;;14.30;12.80;;;;;20.80;99343.00;;;;2100474;28;20212;-60
2021/12/11 00:31:03;;;;;;;14.63;13.15;;;;;20.80;99344.00;;;;2100247;28;20224;-60
2021/12/11 00:32:05;;;;;;;14.30;12.87;;;;;20.80;99344.00;;;;2099938;28;20208;-60
2021/12/11 00:33:08;;;;;;;15.48;13.93;;;;;20.80;99350.00;;;;2099972;28;20764;-60
2021/12/11 00:34:12;;;;;;;15.77;13.20;;;;;20.80;99343.00;;;;2096438;28;20203;-60
2021/12/11 00:35:16;;;;;;;14.70;13.18;;;;;20.80;99348.00;;;;2099659;28;20203;-60
2021/12/11 00:36:19;;;;;;;14.18;12.63;;;;;20.80;99345.00;;;;2091188;28;20703;-60
2021/12/11 00:37:20;;;;;;;14.40;12.93;;;;;20.80;99347.00;;;;2091724;28;20220;-60
2021/12/11 00:38:24;;;;;;;13.68;12.25;;;;;20.80;99362.00;;;;2100182;28;20204;-60
2021/12/11 00:39:25;;;;;;;13.52;12.23;;;;;20.80;99357.00;;;;2096418;28;20639;-60
2021/12/11 00:40:25;;;;;;;14.37;12.87;;;;;20.80;99353.00;;;;2100241;28;20207;-60
2021/12/11 00:41:26;;;;;;;14.57;12.40;;;;;20.80;99357.00;;;;2100429;28;20239;-60
2021/12/11 00:42:33;;;;;;;13.93;12.53;;;;;20.70;99361.00;;;;2099531;28;20219;-60
2021/12/11 00:43:35;;;;;;;13.70;12.32;;;;;20.70;99370.00;;;;2100538;28;20219;-60
2021/12/11 00:44:48;;;;;;;13.77;12.48;;;;;20.80;99367.00;;;;2100047;28;20216;-60
2021/12/11 00:45:49;;;;;;;13.55;12.15;;;;;20.80;99368.00;;;;2088077;28;20311;-60
2021/12/11 00:46:49;;;;;;;14.47;13.00;;;;;20.70;99373.00;;;;2084091;28;21391;-60
2021/12/11 00:47:51;;;;;;;13.10;11.80;;;;;20.70;99370.00;;;;2093858;28;20845;-60
2021/12/11 00:48:52;;;;;;;14.38;12.65;;;;;20.70;99374.00;;;;2100653;28;20706;-60
2021/12/11 00:50:01;;;;;;;13.70;12.30;;;;;20.70;99373.00;;;;2100598;28;20312;-60
2021/12/11 00:51:08;;;;;;;13.50;12.10;;;;;20.70;99377.00;;;;2087962;28;20211;-60
2021/12/11 00:52:08;;;;;;;12.98;11.75;;;;;20.70;99381.00;;;;2093440;28;20209;-60
2021/12/11 00:53:11;;;;;;;13.03;11.63;;;;;20.70;99380.00;;;;2100349;28;20295;-60
2021/12/11 00:54:11;;;;;;;14.15;12.82;;;;;20.70;99380.00;;;;2100327;28;20212;-60
2021/12/11 00:55:24;;;;;;;14.93;12.20;;;;;20.70;99384.00;;;;2100330;28;20227;-60
2021/12/11 00:56:30;;;;;;;13.27;11.88;;;;;20.70;99394.00;;;;2097370;28;20222;-60
2021/12/11 00:57:31;;;;;;;12.20;11.10;;;;;20.70;99377.00;;;;2083022;28;20225;-60
2021/12/11 00:58:33;;;;;;;12.47;11.17;;;;;20.70;99391.00;;;;2075459;28;20237;-60
2021/12/11 00:59:33;;;;;;;13.02;11.70;;;;;20.70;99393.00;;;;2091578;28;20252;-60
2021/12/11 01:00:38;;;;;;;12.70;11.40;;;;;20.70;99397.00;;;;2091168;28;20232;-60
2021/12/11 01:01:50;;;;;;;14.13;12.73;;;;;20.60;99397.00;;;;2092470;28;20318;-60
2021/12/11 01:02:52;;;;;;;13.52;12.10;;;;;20.60;99396.00;;;;2100567;28;20211;-60
2021/12/11 01:04:09;;;;;;;12.35;11.20;;;;;20.60;99407.00;;;;2100531;28;20215;-60
2021/12/11 01:05:10;;;;;;;12.85;11.55;;;;;20.60;99407.00;;;;2098570;28;20681;-60
2021/12/11 01:06:26;;;;;;;13.40;11.80;;;;;20.60;99411.00;;;;2100360;28;20204;-60
2021/12/11 01:07:31;;;;;;;13.07;11.75;;;;;20.60;99405.00;;;;2097519;28;20222;-60
2021/12/11 01:08:34;;;;;;;12.40;11.20;;;;;20.60;99407.00;;;;2083163;28;20572;-60
2021/12/11 01:09:40;;;;;;;13.18;11.60;;;;;20.60;99417.00;;;;2085179;28;20225;-60
2021/12/11 01:10:41;;;;;;;13.43;11.48;;;;;20.60;99413.00;;;;2096069;28;20311;-60
2021/12/11 01:12:14;;;;;;;13.27;11.83;;;;;20.60;99427.00;;;;2099463;28;20586;-60
2021/12/11 01:13:18;;;;;;;12.77;11.57;;;;;20.60;99418.00;;;;2097187;28;20298;-60
2021/12/11 01:14:26;;;;;;;12.55;11.25;;;;;20.60;99441.00;;;;2099460;28;20689;-60
2021/12/11 01:15:40;;;;;;;12.18;10.98;;;;;20.60;99427.00;;;;2091380;28;20221;-61
2021/12/11 01:16:41;;;;;;;11.07;9.98;;;;;20.60;99436.00;;;;2093148;28;20234;-60
2021/12/11 01:17:56;;;;;;;11.90;10.77;;;;;20.60;99449.00;;;;2100275;28;20218;-60
2021/12/11 01:18:58;;;;;;;12.35;11.05;;;;;20.60;99440.00;;;;2098109;28;20569;-60
2021/12/11 01:20:00;;;;;;;11.63;10.48;;;;;20.60;99440.00;;;;2101602;28;20744;-60
2021/12/11 01:22:35;;;;;;;12.57;11.38;;;;;20.60;99454.00;;;;2092733;28;20204;-60
2021/12/11 01:24:44;;;;;;;12.25;11.05;;;;;20.60;99456.00;;;;2098042;28;20641;-60
2021/12/11 01:25:44;;;;;;;14.20;11.60;;;;;20.60;99460.00;;;;2101180;28;20315;-60
2021/12/11 01:26:48;;;;;;;12.00;10.80;;;;;20.60;99462.00;;;;2101807;28;20228;-60
2021/12/11 01:27:51;;;;;;;11.65;10.57;;;;;20.60;99464.00;;;;2101531;28;20219;-61
2021/12/11 01:28:51;;;;;;;11.40;9.95;;;;;20.40;99472.00;;;;2101599;28;20214;-61
2021/12/11 01:29:56;;;;;;;13.70;11.27;;;;;20.40;99471.00;;;;2101732;28;20235;-61
2021/12/11 01:30:56;;;;;;;11.30;10.25;;;;;20.40;99475.00;;;;2098165;28;20212;-60
2021/12/11 01:31:57;;;;;;;12.30;10.33;;;;;20.50;99479.00;;;;2101841;28;20245;-60
2021/12/11 01:32:57;;;;;;;14.00;10.83;;;;;20.50;99487.00;;;;2101949;28;20203;-60
2021/12/11 01:33:58;;;;;;;10.67;9.57;;;;;20.50;99485.00;;;;2101803;28;20211;-62
2021/12/11 01:34:58;;;;;;;11.37;9.70;;;;;20.60;99497.00;;;;2101853;28;20199;-61
2021/12/11 01:35:59;;;;;;;11.00;9.90;;;;;20.60;99497.00;;;;2101874;28;20212;-61
2021/12/11 01:36:59;;;;;;;13.10;10.20;;;;;20.60;99497.00;;;;2101662;28;20219;-60
2021/12/11 01:38:09;;;;;;;11.20;10.00;;;;;20.50;99495.00;;;;2101898;28;20219;-61
2021/12/11 01:39:12;;;;;;;11.00;9.90;;;;;20.50;99503.00;;;;2098488;28;20219;-60
2021/12/11 01:40:14;;;;;;;10.93;9.60;;;;;20.50;99502.00;;;;2101771;28;20295;-60
2021/12/11 01:41:18;;;;;;;11.48;9.68;;;;;20.50;99496.00;;;;2101489;28;20226;-61
2021/12/11 01:42:22;;;;;;;10.00;9.00;;;;;20.50;99505.00;;;;2101833;28;20683;-60
2021/12/11 01:43:23;;;;;;;10.05;9.02;;;;;20.50;99515.00;;;;2101742;28;20212;-61
2021/12/11 01:44:30;;;;;;;10.98;9.10;;;;;20.50;99516.00;;;;2094738;28;20250;-60
2021/12/11 01:45:30;;;;;;;10.43;9.30;;;;;20.50;99511.00;;;;2101593;28;20212;-60
2021/12/11 01:46:30;;;;;;;12.60;10.43;;;;;20.50;99515.00;;;;2101495;28;20232;-60
2021/12/11 01:47:33;;;;;;;10.67;9.60;;;;;20.50;99517.00;;;;2101727;28;20218;-60
2021/12/11 01:48:36;;;;;;;10.10;9.10;;;;;20.50;99524.00;;;;2101671;28;20214;-60
2021/12/11 01:49:38;;;;;;;10.82;9.35;;;;;20.50;99528.00;;;;2096271;28;20220;-60
2021/12/11 01:50:41;;;;;;;12.45;9.75;;;;;20.50;99528.00;;;;2100664;28;20217;-60
2021/12/11 01:51:54;;;;;;;10.77;9.65;;;;;20.50;99533.00;;;;2101405;28;20302;-60
2021/12/11 01:53:06;;;;;;;11.02;9.77;;;;;20.50;99526.00;;;;2100507;28;20693;-61
2021/12/11 01:54:27;;;;;;;10.88;9.75;;;;;20.50;99527.00;;;;2089889;28;20212;-60
2021/12/11 01:55:39;;;;;;;11.35;9.98;;;;;20.40;99535.00;;;;2090362;28;20370;-60
2021/12/11 01:56:42;;;;;;;11.23;9.55;;;;;20.50;99541.00;;;;2101094;28;20644;-60
2021/12/11 01:57:42;;;;;;;10.52;9.43;;;;;20.50;99542.00;;;;2101351;28;20216;-60
2021/12/11 01:59:07;;;;;;;10.33;9.20;;;;;20.50;99533.00;;;;2084112;28;20222;-60
2021/12/11 02:00:13;;;;;;;9.60;8.70;;;;;20.50;99551.00;;;;2090146;28;20216;-60
2021/12/11 02:01:16;;;;;;;9.52;8.50;;;;;20.40;99555.00;;;;2097312;28;20617;-60
2021/12/11 02:02:38;;;;;;;9.30;8.43;;;;;20.40;99549.00;;;;2101332;28;20578;-60
2021/12/11 02:03:38;;;;;;;10.60;9.00;;;;;20.40;99549.00;;;;2097270;28;20288;-60
2021/12/11 02:04:42;;;;;;;9.87;8.87;;;;;20.40;99546.00;;;;2101334;28;20608;-60
2021/12/11 02:05:42;;;;;;;9.95;8.85;;;;;20.40;99560.00;;;;2101153;28;20250;-60
2021/12/11 02:06:44;;;;;;;9.70;8.70;;;;;20.40;99555.00;;;;2101291;28;20234;-60
2021/12/11 02:07:47;;;;;;;9.85;8.75;;;;;20.40;99565.00;;;;2101253;28;23251;-60
2021/12/11 02:08:47;;;;;;;9.50;8.52;;;;;20.40;99569.00;;;;2101099;28;20239;-60
2021/12/11 02:09:55;;;;;;;12.47;8.33;;;;;20.40;99568.00;;;;2098825;28;20239;-60
2021/12/11 02:10:59;;;;;;;9.60;8.18;;;;;20.40;99573.00;;;;2100675;28;20605;-62
2021/12/11 02:12:13;;;;;;;9.10;8.20;;;;;20.40;99575.00;;;;2101478;28;20220;-61
2021/12/11 02:13:20;;;;;;;9.60;8.68;;;;;20.40;99574.00;;;;2097897;28;20550;-60
2021/12/11 02:14:27;;;;;;;9.07;8.18;;;;;20.40;99572.00;;;;2100883;28;20242;-60
2021/12/11 02:15:34;;;;;;;8.85;7.93;;;;;20.40;99567.00;;;;2092008;28;20212;-61
2021/12/11 02:16:46;;;;;;;9.35;7.78;;;;;20.40;99582.00;;;;2090023;28;20579;-60
2021/12/11 02:17:51;;;;;;;10.95;8.95;;;;;20.40;99589.00;;;;2101242;28;20219;-60
2021/12/11 02:19:03;;;;;;;9.38;8.38;;;;;20.30;99592.00;;;;2101280;28;20209;-60
2021/12/11 02:20:06;;;;;;;8.40;7.57;;;;;20.40;99600.00;;;;2098381;28;20211;-60
2021/12/11 02:21:09;;;;;;;8.77;7.60;;;;;20.30;99603.00;;;;2100654;28;20588;-60
2021/12/11 02:22:12;;;;;;;9.15;7.93;;;;;20.30;99600.00;;;;2100946;28;20269;-60
2021/12/11 02:23:13;;;;;;;9.50;8.30;;;;;20.30;99604.00;;;;2100135;28;20212;-60
2021/12/11 02:24:16;;;;;;;8.70;7.90;;;;;20.40;99610.00;;;;2098778;28;20212;-60
2021/12/11 02:25:31;;;;;;;8.68;7.80;;;;;20.30;99604.00;;;;2100348;28;20218;-60
2021/12/11 02:26:34;;;;;;;8.90;8.00;;;;;20.30;99610.00;;;;2100060;28;20215;-61
2021/12/11 02:27:41;;;;;;;8.48;7.68;;;;;20.30;99616.00;;;;2100484;28;20265;-61
2021/12/11 02:28:51;;;;;;;8.40;7.60;;;;;20.30;99620.00;;;;2097010;28;20219;-60
2021/12/11 02:30:02;;;;;;;8.95;8.07;;;;;20.30;99613.00;;;;2100734;28;20244;-60
2021/12/11 02:31:27;;;;;;;9.15;7.45;;;;;20.30;99611.00;;;;2096782;28;20238;-60
2021/12/11 02:32:34;;;;;;;9.80;8.00;;;;;20.30;99615.00;;;;2088085;28;20223;-60
2021/12/11 02:33:44;;;;;;;9.05;8.18;;;;;20.30;99622.00;;;;2084754;28;20303;-60
2021/12/11 02:34:51;;;;;;;8.80;7.97;;;;;20.30;99620.00;;;;2083021;28;20248;-60
2021/12/11 02:36:10;;;;;;;9.77;8.10;;;;;20.30;99625.00;;;;2088398;28;20948;-60
2021/12/11 02:37:10;;;;;;;8.52;7.18;;;;;20.30;99620.00;;;;2094946;28;20609;-60
2021/12/11 02:38:28;;;;;;;8.00;7.20;;;;;20.30;99626.00;;;;2100707;28;20208;-60
2021/12/11 02:39:32;;;;;;;8.73;7.85;;;;;20.30;99609.00;;;;2100870;28;20230;-60
2021/12/11 02:40:37;;;;;;;8.50;7.70;;;;;20.30;99626.00;;;;2100631;28;20218;-61
2021/12/11 02:41:49;;;;;;;9.10;7.88;;;;;20.30;99617.00;;;;2097196;28;20242;-61
2021/12/11 02:42:59;;;;;;;8.95;8.00;;;;;20.30;99625.00;;;;2101272;28;20666;-60
2021/12/11 02:44:11;;;;;;;8.27;7.30;;;;;20.30;99633.00;;;;2097349;28;20254;-60
2021/12/11 02:45:30;;;;;;;8.55;7.40;;;;;20.30;99624.00;;;;2101015;28;20666;-61
2021/12/11 02:47:04;;;;;;;8.13;7.43;;;;;20.30;99632.00;;;;2098345;28;20689;-61
2021/12/11 02:48:10;;;;;;;8.35;7.47;;;;;20.30;99642.00;;;;2068643;28;20218;-61
2021/12/11 02:49:20;;;;;;;7.97;7.28;;;;;20.20;99632.00;;;;2100133;28;20232;-60
2021/12/11 02:50:26;;;;;;;6.88;6.20;;;;;20.20;99647.00;;;;2097872;28;20207;-60
2021/12/11 02:51:30;;;;;;;8.00;7.20;;;;;20.20;99644.00;;;;2100883;28;20302;-60
2021/12/11 02:52:38;;;;;;;7.57;6.88;;;;;20.20;99647.00;;;;2100770;28;20211;-60
2021/12/11 02:54:00;;;;;;;9.85;7.38;;;;;20.20;99652.00;;;;2096961;28;20272;-61
2021/12/11 02:55:15;;;;;;;7.47;6.38;;;;;20.20;99637.00;;;;2100955;28;20216;-60
2021/12/11 02:56:26;;;;;;;8.20;7.40;;;;;20.20;99652.00;;;;2100525;28;20220;-60
2021/12/11 02:57:35;;;;;;;9.63;7.97;;;;;20.20;99647.00;;;;2100305;28;20215;-60
2021/12/11 02:58:38;;;;;;;8.18;7.47;;;;;20.20;99653.00;;;;2100544;28;20609;-61
2021/12/11 02:59:43;;;;;;;7.85;7.15;;;;;20.20;99647.00;;;;2098172;28;20227;-60
2021/12/11 03:00:59;;;;;;;7.75;6.95;;;;;20.20;99657.00;;;;2100464;28;20217;-60
2021/12/11 03:02:05;;;;;;;8.40;7.60;;;;;20.20;99654.00;;;;2098792;28;20558;-60
2021/12/11 03:03:07;;;;;;;7.55;6.85;;;;;20.20;99655.00;;;;2100941;28;20226;-61
2021/12/11 03:04:19;;;;;;;8.52;7.65;;;;;20.20;99662.00;;;;2100956;28;20212;-61
2021/12/11 03:05:23;;;;;;;7.80;7.00;;;;;20.20;99659.00;;;;2098346;28;20297;-60
2021/12/11 03:06:26;;;;;;;8.40;7.63;;;;;20.20;99657.00;;;;2100691;28;20212;-61
2021/12/11 03:07:36;;;;;;;7.80;6.90;;;;;20.20;99662.00;;;;2100915;28;20223;-61
2021/12/11 03:08:36;;;;;;;7.57;6.88;;;;;20.20;99657.00;;;;2097733;28;20212;-60
2021/12/11 03:09:38;;;;;;;8.17;7.17;;;;;20.20;99663.00;;;;2097963;28;20211;-62
2021/12/11 03:10:39;;;;;;;7.03;6.43;;;;;20.20;99668.00;;;;2100398;28;20215;-60
2021/12/11 03:11:40;;;;;;;7.80;7.10;;;;;20.20;99666.00;;;;2091587;28;20250;-60
2021/12/11 03:12:40;;;;;;;7.50;6.77;;;;;20.20;99661.00;;;;2091514;28;20212;-60
2021/12/11 03:13:41;;;;;;;7.30;6.67;;;;;20.10;99659.00;;;;2099010;28;20353;-61
2021/12/11 03:14:41;;;;;;;8.50;7.60;;;;;20.20;99668.00;;;;2098085;28;20219;-60
2021/12/11 03:15:42;;;;;;;9.00;7.70;;;;;20.20;99665.00;;;;2099106;28;20224;-61
2021/12/11 03:16:42;;;;;;;7.40;6.50;;;;;20.20;99677.00;;;;2100844;28;20223;-61
2021/12/11 03:17:43;;;;;;;7.97;7.27;;;;;20.20;99679.00;;;;2100750;28;20212;-60
2021/12/11 03:18:43;;;;;;;8.03;7.10;;;;;20.20;99675.00;;;;2100964;28;20247;-61
2021/12/11 03:19:45;;;;;;;7.73;7.03;;;;;20.20;99677.00;;;;2098568;28;20772;-60
2021/12/11 03:20:46;;;;;;;8.15;7.35;;;;;20.10;99680.00;;;;2100658;28;20785;-60
2021/12/11 03:21:46;;;;;;;7.80;7.00;;;;;20.10;99681.00;;;;2100747;28;20223;-60
2021/12/11 03:22:47;;;;;;;8.23;7.33;;;;;20.10;99689.00;;;;2100745;28;20300;-60
2021/12/11 03:23:47;;;;;;;8.60;7.13;;;;;20.10;99691.00;;;;2100583;28;20322;-60
2021/12/11 03:24:48;;;;;;;7.57;6.77;;;;;20.10;99692.00;;;;2100793;28;20223;-60
2021/12/11 03:25:48;;;;;;;8.27;7.03;;;;;20.10;99692.00;;;;2099865;28;20306;-61
2021/12/11 03:26:50;;;;;;;7.50;6.90;;;;;20.10;99698.00;;;;2100445;28;20231;-61
2021/12/11 03:27:50;;;;;;;9.32;6.68;;;;;20.10;99697.00;;;;2100537;28;20713;-61
2021/12/11 03:28:51;;;;;;;7.60;6.90;;;;;20.10;99695.00;;;;2100418;28;20219;-60
2021/12/11 03:29:51;;;;;;;9.17;8.00;;;;;20.10;99702.00;;;;2100287;28;20222;-60
2021/12/11 03:30:56;;;;;;;8.40;7.30;;;;;20.10;99690.00;;;;2091086;28;20231;-61
2021/12/11 03:31:57;;;;;;;8.15;7.25;;;;;20.10;99706.00;;;;2092229;28;20224;-60
2021/12/11 03:33:00;;;;;;;8.37;7.57;;;;;20.10;99704.00;;;;2098344;28;20255;-60
2021/12/11 03:34:00;;;;;;;8.02;7.22;;;;;20.10;99710.00;;;;2096492;28;20211;-60
2021/12/11 03:35:01;;;;;;;7.60;6.80;;;;;20.10;99711.00;;;;2100563;28;20716;-60
2021/12/11 03:36:03;;;;;;;8.93;7.37;;;;;20.10;99722.00;;;;2091645;28;20216;-60
2021/12/11 03:37:04;;;;;;;8.23;7.15;;;;;20.10;99714.00;;;;2091720;28;20481;-60
2021/12/11 03:38:05;;;;;;;8.13;6.90;;;;;20.10;99723.00;;;;2091252;28;20208;-60
2021/12/11 03:39:12;;;;;;;7.97;7.18;;;;;20.10;99729.00;;;;2090937;28;20223;-60
2021/12/11 03:40:13;;;;;;;10.05;7.03;;;;;20.10;99725.00;;;;2100241;28;20212;-60
2021/12/11 03:41:13;;;;;;;8.57;7.67;;;;;20.10;99719.00;;;;2095948;28;20574;-61
2021/12/11 03:42:16;;;;;;;8.40;7.60;;;;;20.10;99726.00;;;;2100602;28;20483;-61
2021/12/11 03:43:18;;;;;;;8.00;7.20;;;;;20.10;99726.00;;;;2091412;28;20506;-61
2021/12/11 03:44:18;;;;;;;9.85;7.90;;;;;20.10;99726.00;;;;2084481;28;20243;-60
2021/12/11 03:45:24;;;;;;;8.43;7.33;;;;;20.10;99725.00;;;;2091457;28;20208;-60
2021/12/11 03:46:24;;;;;;;8.77;7.88;;;;;20.10;99736.00;;;;2092147;28;20220;-61
2021/12/11 03:47:33;;;;;;;9.40;7.80;;;;;20.00;99739.00;;;;2100459;28;20579;-60
2021/12/11 03:49:00;;;;;;;9.00;7.45;;;;;20.00;99742.00;;;;2095715;28;20706;-60
2021/12/11 03:50:00;;;;;;;8.13;7.30;;;;;20.10;99747.00;;;;2094297;28;20211;-60
2021/12/11 03:51:02;;;;;;;8.40;7.53;;;;;20.10;99731.00;;;;2099452;28;20714;-60
2021/12/11 03:52:05;;;;;;;9.65;8.27;;;;;20.00;99737.00;;;;2098949;28;20265;-60
2021/12/11 03:53:06;;;;;;;8.93;7.80;;;;;20.00;99743.00;;;;2100937;28;20212;-60
2021/12/11 03:54:08;;;;;;;9.45;8.15;;;;;20.00;99747.00;;;;2100859;28;20220;-60
2021/12/11 03:55:09;;;;;;;7.78;7.00;;;;;20.10;99748.00;;;;2098580;28;20212;-60
2021/12/11 03:56:11;;;;;;;9.20;7.72;;;;;20.00;99751.00;;;;2100842;28;20226;-60
2021/12/11 03:57:15;;;;;;;8.52;7.63;;;;;20.00;99751.00;;;;2100059;28;20740;-60
2021/12/11 03:58:15;;;;;;;9.73;8.57;;;;;20.00;99743.00;;;;2089545;28;20295;-60
2021/12/11 03:59:15;;;;;;;8.83;7.60;;;;;20.00;99755.00;;;;2092007;28;20622;-60
2021/12/11 04:00:18;;;;;;;9.23;7.90;;;;;20.00;99756.00;;;;2091247;28;20212;-61
2021/12/11 04:01:25;;;;;;;9.55;8.45;;;;;20.00;99750.00;;;;2098986;28;20277;-61
2021/12/11 04:02:29;;;;;;;9.48;7.90;;;;;20.10;99750.00;;;;2096783;28;20211;-60
2021/12/11 04:03:31;;;;;;;8.90;8.05;;;;;20.00;99754.00;;;;2100082;28;20223;-60
2021/12/11 04:04:36;;;;;;;9.60;8.70;;;;;20.00;99755.00;;;;2089179;28;20237;-60
2021/12/11 04:05:39;;;;;;;8.90;7.53;;;;;20.00;99758.00;;;;2091715;28;20263;-60
2021/12/11 04:06:40;;;;;;;9.55;8.30;;;;;20.00;99759.00;;;;2083170;28;20221;-60
2021/12/11 04:07:45;;;;;;;9.70;8.30;;;;;20.00;99760.00;;;;2083391;28;20763;-60
2021/12/11 04:08:46;;;;;;;10.32;8.52;;;;;20.00;99764.00;;;;2100611;28;20295;-60
2021/12/11 04:09:46;;;;;;;9.10;8.27;;;;;20.00;99769.00;;;;2094521;28;20615;-61
2021/12/11 04:10:46;;;;;;;10.53;8.50;;;;;20.00;99764.00;;;;2100673;28;20294;-60
2021/12/11 04:11:48;;;;;;;8.87;8.07;;;;;20.00;99770.00;;;;2091990;28;20220;-60
2021/12/11 04:12:48;;;;;;;9.20;7.78;;;;;20.00;99769.00;;;;2091519;28;20574;-62
2021/12/11 04:13:50;;;;;;;9.93;8.93;;;;;20.00;99752.00;;;;2101036;28;20219;-61
2021/12/11 04:14:51;;;;;;;10.52;8.05;;;;;19.90;99775.00;;;;2089604;28;20327;-60
2021/12/11 04:15:52;;;;;;;10.30;8.23;;;;;20.00;99781.00;;;;2091838;28;20212;-61
2021/12/11 04:16:52;;;;;;;9.80;8.10;;;;;20.00;99780.00;;;;2091381;28;20545;-60
2021/12/11 04:17:54;;;;;;;9.07;8.17;;;;;20.00;99779.00;;;;2090950;28;20212;-60
2021/12/11 04:18:55;;;;;;;8.18;7.38;;;;;20.00;99772.00;;;;2100345;28;20231;-61
2021/12/11 04:19:57;;;;;;;10.23;8.93;;;;;20.00;99782.00;;;;2100159;28;20591;-60
2021/12/11 04:20:57;;;;;;;10.05;8.45;;;;;20.00;99786.00;;;;2100271;28;20223;-60
2021/12/11 04:21:57;;;;;;;9.07;8.17;;;;;20.00;99786.00;;;;2100234;28;20204;-60
2021/12/11 04:22:58;;;;;;;9.33;8.33;;;;;19.90;99783.00;;;;2100552;28;20208;-60
2021/12/11 04:23:59;;;;;;;8.23;7.43;;;;;20.00;99779.00;;;;2090536;28;20267;-60
2021/12/11 04:25:00;;;;;;;9.75;8.55;;;;;19.90;99777.00;;;;2091990;28;20723;-60
2021/12/11 04:26:00;;;;;;;10.50;8.93;;;;;19.90;99787.00;;;;2091965;28;20240;-60
2021/12/11 04:27:02;;;;;;;9.33;8.43;;;;;19.90;99781.00;;;;2100586;28;20212;-60
2021/12/11 04:28:03;;;;;;;11.65;9.30;;;;;19.90;99788.00;;;;2091814;28;20744;-60
2021/12/11 04:29:04;;;;;;;10.87;8.50;;;;;19.90;99792.00;;;;2092085;28;20201;-60
2021/12/11 04:30:09;;;;;;;9.60;8.40;;;;;19.90;99791.00;;;;2100936;28;20602;-60
2021/12/11 04:31:11;;;;;;;9.90;8.90;;;;;19.90;99792.00;;;;2100573;28;20833;-60
2021/12/11 04:32:12;;;;;;;9.07;8.18;;;;;19.90;99797.00;;;;2096702;28;20222;-60
2021/12/11 04:33:12;;;;;;;9.70;8.50;;;;;19.90;99777.00;;;;2100611;28;20298;-60
2021/12/11 04:34:14;;;;;;;10.23;8.77;;;;;19.90;99794.00;;;;2100529;28;20215;-60
2021/12/11 04:35:15;;;;;;;10.35;8.40;;;;;19.90;99798.00;;;;2091399;28;20633;-60
2021/12/11 04:36:19;;;;;;;9.73;8.80;;;;;19.90;99797.00;;;;2091721;28;20265;-60
2021/12/11 04:37:22;;;;;;;9.20;8.02;;;;;19.90;99802.00;;;;2100402;28;20243;-61
2021/12/11 04:38:23;;;;;;;10.95;9.20;;;;;19.90;99803.00;;;;2100071;28;20204;-61
2021/12/11 04:39:24;;;;;;;11.40;9.53;;;;;19.90;99808.00;;;;2104422;28;20220;-61
2021/12/11 04:40:27;;;;;;;9.07;8.15;;;;;19.90;99811.00;;;;2100109;28;20207;-62
2021/12/11 04:41:35;;;;;;;9.70;8.70;;;;;19.90;99799.00;;;;2091457;28;20238;-60
2021/12/11 04:43:36;;;;;;;10.73;8.15;;;;;19.90;99799.00;;;;2091525;28;20673;-60
2021/12/11 04:44:40;;;;;;;9.33;8.27;;;;;19.90;99801.00;;;;2100529;28;20212;-60
2021/12/11 04:45:56;;;;;;;9.88;8.88;;;;;19.90;99801.00;;;;2096639;28;20218;-60
2021/12/11 04:46:56;;;;;;;10.73;9.32;;;;;19.90;99812.00;;;;2099985;28;20212;-61
2021/12/11 04:48:09;;;;;;;9.50;8.50;;;;;19.90;99813.00;;;;2100347;28;20215;-60
2021/12/11 04:49:20;;;;;;;10.18;8.65;;;;;19.90;99810.00;;;;2097415;28;20245;-60
2021/12/11 04:50:33;;;;;;;9.77;8.77;;;;;19.90;99808.00;;;;2099981;28;20617;-60
2021/12/11 04:51:58;;;;;;;10.10;9.10;;;;;19.80;99819.00;;;;2097256;28;20207;-61
2021/12/11 04:52:59;;;;;;;11.00;9.18;;;;;19.90;99817.00;;;;2096966;28;20207;-61
2021/12/11 04:55:20;;;;;;;9.07;8.13;;;;;19.90;99817.00;;;;2100261;28;20823;-61
2021/12/11 04:58:00;;;;;;;10.40;9.10;;;;;19.90;99822.00;;;;2097268;28;20211;-60
2021/12/11 05:00:55;;;;;;;10.05;8.77;;;;;19.80;99825.00;;;;2087881;28;20220;-60
2021/12/11 05:01:53;;;;;;;10.85;8.80;;;;;19.90;99826.00;;;;2091905;28;20219;-60
2021/12/11 05:06:28;;;;;;;10.87;9.77;;;;;19.80;99833.00;;;;2100185;28;20294;-60
2021/12/11 05:07:39;;;;;;;11.43;9.43;;;;;19.80;99843.00;;;;2097551;28;20449;-61
2021/12/11 05:10:16;;;;;;;10.40;9.25;;;;;19.90;99848.00;;;;2097681;28;20203;-61
2021/12/11 05:11:21;;;;;;;11.15;9.45;;;;;19.80;99844.00;;;;2096872;28;20215;-60
2021/12/11 05:13:25;;;;;;;12.75;9.25;;;;;19.80;99856.00;;;;2091624;28;20222;-60
2021/12/11 05:14:26;;;;;;;10.27;8.77;;;;;19.80;99858.00;;;;2090870;28;20204;-60
2021/12/11 05:15:33;;;;;;;10.50;8.97;;;;;19.80;99860.00;;;;2090787;28;20220;-60
2021/12/11 05:16:33;;;;;;;12.18;10.35;;;;;19.80;99861.00;;;;2099603;28;20562;-61
2021/12/11 05:17:34;;;;;;;11.93;9.80;;;;;19.80;99860.00;;;;2100131;28;20222;-60
2021/12/11 05:18:34;;;;;;;12.13;9.60;;;;;19.80;99870.00;;;;2099070;28;20227;-60
2021/12/11 05:19:35;;;;;;;12.67;10.57;;;;;19.80;99864.00;;;;2098483;28;20228;-61
2021/12/11 05:20:36;;;;;;;11.63;10.40;;;;;19.80;99869.00;;;;2099857;28;20215;-60
2021/12/11 05:21:36;;;;;;;11.57;10.38;;;;;19.80;99876.00;;;;2099991;28;20211;-60
2021/12/11 05:22:37;;;;;;;11.23;9.30;;;;;19.80;99866.00;;;;2099995;28;20211;-60
2021/12/11 05:23:37;;;;;;;11.67;10.10;;;;;19.80;99877.00;;;;2100110;28;20215;-60
2021/12/11 05:24:40;;;;;;;12.83;11.10;;;;;19.80;99858.00;;;;2099795;28;20223;-60
2021/12/11 05:25:40;;;;;;;11.88;10.05;;;;;19.80;99882.00;;;;2091093;28;20302;-60
2021/12/11 05:26:40;;;;;;;12.97;9.67;;;;;19.80;99888.00;;;;2091050;28;20330;-60
2021/12/11 05:27:42;;;;;;;10.40;9.17;;;;;19.80;99894.00;;;;2091274;28;20215;-60
2021/12/11 05:28:42;;;;;;;13.77;10.90;;;;;19.80;99889.00;;;;2100201;28;20215;-60
2021/12/11 05:29:43;;;;;;;12.30;9.47;;;;;19.70;99893.00;;;;2100196;28;20227;-60
2021/12/11 05:30:45;;;;;;;13.10;10.10;;;;;19.80;99880.00;;;;2100111;28;20862;-60
2021/12/11 05:31:45;;;;;;;12.05;9.77;;;;;19.80;99893.00;;;;2091259;28;20209;-60
2021/12/11 05:32:46;;;;;;;11.90;9.83;;;;;19.80;99897.00;;;;2091386;28;20763;-60